createdAt,value
2023-01-20T00:01:30.437Z,67.87
2023-01-20T00:03:57.618Z,64.33
2023-01-20T00:06:25.206Z,65.73
2023-01-20T00:08:52.637Z,65.67
2023-01-20T00:11:19.562Z,68.30
2023-01-20T00:13:46.410Z,65.47
2023-01-20T00:16:13.410Z,66.97
2023-01-20T00:18:40.470Z,61.27
2023-01-20T00:21:12.024Z,63.23
2023-01-20T00:23:39.069Z,66.00
2023-01-20T00:26:06.680Z,66.10
2023-01-20T00:28:34.229Z,67.17
2023-01-20T00:31:24.910Z,64.67
2023-01-20T00:33:58.031Z,61.30
2023-01-20T00:36:25.232Z,63.27
2023-01-20T00:38:52.099Z,69.20
2023-01-20T00:41:21.332Z,57.47
2023-01-20T00:43:48.171Z,59.40
2023-01-20T00:46:17.358Z,55.80
2023-01-20T00:48:44.240Z,54.20
2023-01-20T00:51:11.231Z,56.50
2023-01-20T00:53:38.173Z,59.63
2023-01-20T00:56:05.299Z,52.30
2023-01-20T00:58:32.138Z,57.80
2023-01-20T01:00:59.247Z,55.97
2023-01-20T01:03:28.131Z,51.80
2023-01-20T01:05:59.856Z,54.53
2023-01-20T01:08:28.774Z,49.97
2023-01-20T01:10:58.301Z,52.07
2023-01-20T01:13:25.085Z,54.20
2023-01-20T01:15:51.957Z,51.90
2023-01-20T01:18:20.999Z,56.47
2023-01-20T01:20:47.783Z,56.07
2023-01-20T01:23:16.823Z,54.33
2023-01-20T01:25:43.595Z,50.17
2023-01-20T01:28:10.375Z,52.93
2023-01-20T01:30:37.187Z,50.77
2023-01-20T01:33:04.045Z,52.33
2023-01-20T01:35:33.081Z,52.63
2023-01-20T01:37:59.909Z,52.17
2023-01-20T01:40:26.715Z,53.47
2023-01-20T01:42:53.472Z,50.67
2023-01-20T01:45:21.989Z,51.03
2023-01-20T01:48:03.161Z,51.77
2023-01-20T01:51:04.151Z,53.27
2023-01-20T01:53:31.063Z,55.13
2023-01-20T01:55:59.472Z,54.40
2023-01-20T01:58:30.206Z,51.57
2023-01-20T02:00:57.368Z,50.47
2023-01-20T02:03:24.371Z,48.23
2023-01-20T02:05:53.760Z,50.90
2023-01-20T02:08:20.616Z,51.17
2023-01-20T02:10:47.403Z,52.43
2023-01-20T02:13:16.604Z,52.40
2023-01-20T02:16:20.743Z,55.70
2023-01-20T02:19:09.899Z,50.50
2023-01-20T02:22:06.880Z,49.30
2023-01-20T02:24:36.427Z,49.27
2023-01-20T02:27:14.153Z,51.83
2023-01-20T02:30:03.326Z,55.50
2023-01-20T02:32:42.051Z,49.67
2023-01-20T02:35:15.759Z,49.47
2023-01-20T02:38:13.195Z,49.80
2023-01-20T02:40:45.665Z,52.57
2023-01-20T02:43:18.776Z,49.20
2023-01-20T02:46:01.938Z,50.90
2023-01-20T02:48:35.425Z,53.13
2023-01-20T02:51:07.741Z,57.67
2023-01-20T02:53:39.590Z,52.93
2023-01-20T02:56:06.562Z,51.87
2023-01-20T02:59:04.101Z,57.20
2023-01-20T03:01:38.866Z,53.87
2023-01-20T03:04:05.761Z,53.70
2023-01-20T03:06:35.297Z,56.37
2023-01-20T03:09:04.896Z,58.90
2023-01-20T03:11:31.737Z,54.57
2023-01-20T03:14:01.238Z,58.30
2023-01-20T03:16:28.226Z,65.20
2023-01-20T03:18:55.116Z,57.67
2023-01-20T03:21:22.122Z,65.83
2023-01-20T03:23:53.271Z,59.03
2023-01-20T03:26:21.133Z,61.63
2023-01-20T03:28:48.922Z,67.73
2023-01-20T03:31:19.982Z,65.67
2023-01-20T03:33:47.025Z,59.80
2023-01-20T03:36:16.367Z,63.23
2023-01-20T03:39:00.561Z,71.10
2023-01-20T03:41:35.859Z,62.40
2023-01-20T03:44:12.820Z,58.47
2023-01-20T03:47:16.783Z,60.40
2023-01-20T03:50:24.788Z,61.90
2023-01-20T03:52:57.894Z,56.70
2023-01-20T03:55:30.020Z,66.17
2023-01-20T03:57:58.238Z,68.47
2023-01-20T04:00:29.464Z,68.17
2023-01-20T04:02:56.643Z,65.63
2023-01-20T04:05:25.598Z,67.87
2023-01-20T04:07:52.362Z,67.43
2023-01-20T04:10:21.323Z,64.20
2023-01-20T04:12:48.126Z,75.17
2023-01-20T04:15:17.290Z,68.60
2023-01-20T04:17:47.128Z,71.50
2023-01-20T04:20:16.951Z,68.37
2023-01-20T04:22:48.777Z,67.90
2023-01-20T04:25:29.016Z,72.80
2023-01-20T04:27:55.824Z,70.00
2023-01-20T04:30:22.702Z,73.07
2023-01-20T04:32:49.568Z,71.93
2023-01-20T04:35:18.035Z,73.73
2023-01-20T04:37:47.317Z,70.87
2023-01-20T04:40:16.423Z,71.90
2023-01-20T04:42:43.184Z,72.37
2023-01-20T04:45:10.601Z,71.07
2023-01-20T04:47:37.363Z,76.20
2023-01-20T04:50:04.359Z,73.57
2023-01-20T04:52:33.549Z,72.43
2023-01-20T04:55:00.308Z,64.47
2023-01-20T04:57:27.051Z,74.00
2023-01-20T04:59:56.267Z,64.43
2023-01-20T05:02:23.125Z,67.53
2023-01-20T05:04:49.953Z,66.00
2023-01-20T05:07:16.713Z,66.07
2023-01-20T05:09:43.472Z,67.67
2023-01-20T05:12:10.235Z,73.23
2023-01-20T05:14:37.002Z,69.10
2023-01-20T05:17:06.159Z,64.63
2023-01-20T05:19:32.926Z,67.03
2023-01-20T05:22:00.314Z,69.20
2023-01-20T05:24:30.831Z,68.97
2023-01-20T05:27:00.635Z,68.10
2023-01-20T05:29:28.465Z,69.07
2023-01-20T05:31:55.240Z,69.00
2023-01-20T05:34:22.088Z,68.73
2023-01-20T05:36:54.331Z,66.37
2023-01-20T05:39:21.339Z,68.23
2023-01-20T05:41:48.153Z,74.87
2023-01-20T05:44:17.531Z,65.87
2023-01-20T05:46:46.514Z,74.73
2023-01-20T05:49:15.808Z,75.70
2023-01-20T05:51:45.048Z,76.23
2023-01-20T05:54:11.854Z,76.70
2023-01-20T05:56:41.092Z,79.47
2023-01-20T05:59:08.133Z,76.47
2023-01-20T06:01:35.147Z,79.50
2023-01-20T06:04:04.605Z,87.13
2023-01-20T06:06:31.384Z,89.50
2023-01-20T06:08:58.222Z,85.40
2023-01-20T06:11:25.171Z,93.47
2023-01-20T06:13:51.968Z,97.60
2023-01-20T06:16:19.004Z,94.93
2023-01-20T06:18:48.360Z,92.93
2023-01-20T06:21:15.139Z,99.63
2023-01-20T06:23:44.029Z,91.67
2023-01-20T06:26:14.144Z,98.10
2023-01-20T06:28:40.978Z,98.27
2023-01-20T06:31:14.778Z,88.97
2023-01-20T06:33:44.136Z,88.47
2023-01-20T06:36:13.791Z,96.57
2023-01-20T06:38:48.356Z,93.60
2023-01-20T06:41:15.237Z,90.47
2023-01-20T06:43:42.231Z,89.40
2023-01-20T06:46:11.551Z,86.20
2023-01-20T06:48:38.405Z,85.57
2023-01-20T06:51:10.107Z,80.83
2023-01-20T06:53:39.967Z,83.77
2023-01-20T06:56:09.270Z,90.53
2023-01-20T06:58:36.038Z,86.37
2023-01-20T07:01:17.046Z,75.27
2023-01-20T07:03:44.141Z,86.17
2023-01-20T07:06:15.211Z,76.00
2023-01-20T07:08:43.850Z,82.37
2023-01-20T07:11:13.193Z,73.30
2023-01-20T07:13:40.110Z,76.33
2023-01-20T07:16:10.176Z,82.07
2023-01-20T07:18:37.944Z,77.40
2023-01-20T07:21:07.341Z,76.20
2023-01-20T07:23:38.779Z,77.63
2023-01-20T07:26:11.016Z,71.40
2023-01-20T07:28:38.232Z,66.87
2023-01-20T07:31:08.207Z,67.80
2023-01-20T07:33:35.217Z,68.80
2023-01-20T07:36:02.110Z,62.87
2023-01-20T07:38:29.371Z,64.67
2023-01-20T07:40:59.915Z,64.20
2023-01-20T07:43:26.769Z,61.97
2023-01-20T07:45:57.364Z,59.27
2023-01-20T07:48:28.936Z,60.20
2023-01-20T07:51:02.040Z,63.77
2023-01-20T07:53:35.086Z,52.90
2023-01-20T07:56:07.728Z,62.57
2023-01-20T07:58:37.067Z,69.23
2023-01-20T08:01:08.677Z,60.67
2023-01-20T08:03:35.827Z,61.30
2023-01-20T08:06:06.981Z,62.27
2023-01-20T08:08:33.904Z,58.67
2023-01-20T08:11:01.515Z,58.40
2023-01-20T08:13:33.800Z,65.07
2023-01-20T08:16:01.601Z,61.07
2023-01-20T08:18:28.528Z,60.63
2023-01-20T08:20:55.306Z,64.70
2023-01-20T08:23:22.063Z,56.97
2023-01-20T08:25:58.590Z,58.47
2023-01-20T08:28:25.997Z,60.77
2023-01-20T08:30:52.865Z,52.93
2023-01-20T08:33:19.951Z,59.83
2023-01-20T08:35:47.145Z,52.80
2023-01-20T08:38:14.117Z,53.40
2023-01-20T08:40:44.213Z,63.37
2023-01-20T08:43:11.050Z,59.07
2023-01-20T08:45:40.294Z,54.07
2023-01-20T08:48:09.229Z,55.10
2023-01-20T08:50:36.379Z,58.33
2023-01-20T08:53:05.305Z,58.67
2023-01-20T08:55:32.119Z,56.73
2023-01-20T08:57:58.909Z,52.90
2023-01-20T09:00:25.847Z,49.83
2023-01-20T09:02:57.227Z,55.60
2023-01-20T09:05:24.149Z,49.27
2023-01-20T09:07:50.963Z,58.30
2023-01-20T09:10:18.160Z,50.73
2023-01-20T09:12:49.600Z,47.43
2023-01-20T09:15:16.803Z,49.93
2023-01-20T09:17:43.769Z,44.20
2023-01-20T09:20:11.247Z,48.10
2023-01-20T09:22:40.546Z,47.03
2023-01-20T09:25:11.083Z,49.13
2023-01-20T09:27:37.849Z,41.97
2023-01-20T09:30:05.236Z,41.83
2023-01-20T09:32:34.147Z,43.17
2023-01-20T09:35:00.914Z,48.03
2023-01-20T09:37:46.397Z,44.40
2023-01-20T09:40:39.880Z,47.57
2023-01-20T09:43:26.369Z,41.53
2023-01-20T09:46:24.352Z,45.40
2023-01-20T09:49:26.494Z,39.63
2023-01-20T09:52:21.029Z,43.93
2023-01-20T09:54:55.663Z,44.80
2023-01-20T09:57:22.430Z,41.60
2023-01-20T09:59:53.814Z,44.90
2023-01-20T10:02:26.788Z,38.00
2023-01-20T10:04:57.368Z,46.13
2023-01-20T10:07:36.107Z,39.93
2023-01-20T10:10:05.980Z,43.33
2023-01-20T10:12:36.219Z,42.47
2023-01-20T10:15:18.630Z,42.97
2023-01-20T10:17:51.339Z,41.57
2023-01-20T10:20:21.959Z,42.87
2023-01-20T10:23:04.624Z,45.87
2023-01-20T10:26:13.187Z,44.17
2023-01-20T10:28:42.164Z,45.60
2023-01-20T10:31:09.026Z,44.27
2023-01-20T10:33:38.733Z,44.50
2023-01-20T10:36:11.105Z,40.13
2023-01-20T10:38:52.939Z,49.10
2023-01-20T10:41:27.485Z,47.63
2023-01-20T10:43:59.363Z,44.70
2023-01-20T10:46:38.842Z,41.60
2023-01-20T10:49:14.351Z,48.03
2023-01-20T10:52:09.529Z,51.83
2023-01-20T10:54:59.323Z,51.93
2023-01-20T10:57:28.210Z,46.87
2023-01-20T10:59:57.627Z,51.50
2023-01-20T11:02:38.065Z,48.67
2023-01-20T11:05:22.519Z,44.73
2023-01-20T11:07:49.560Z,46.73
2023-01-20T11:10:26.401Z,50.10
2023-01-20T11:13:02.971Z,41.70
2023-01-20T11:15:33.290Z,49.13
2023-01-20T11:18:15.130Z,48.33
2023-01-20T11:20:48.302Z,48.50
2023-01-20T11:23:38.752Z,41.60
2023-01-20T11:26:12.238Z,42.27
2023-01-20T11:28:45.119Z,44.60
2023-01-20T11:31:11.957Z,44.10
2023-01-20T11:33:43.361Z,38.57
2023-01-20T11:36:19.225Z,42.43
2023-01-20T11:38:48.180Z,43.23
2023-01-20T11:41:27.319Z,45.83
2023-01-20T11:43:58.424Z,37.33
2023-01-20T11:46:35.110Z,45.67
2023-01-20T11:49:11.247Z,37.60
2023-01-20T11:51:48.853Z,35.57
2023-01-20T11:54:17.969Z,35.43
2023-01-20T11:56:45.317Z,36.47
2023-01-20T11:59:39.167Z,35.47
2023-01-20T12:02:09.108Z,32.60
2023-01-20T12:04:41.764Z,34.87
2023-01-20T12:07:18.462Z,34.57
2023-01-20T12:09:49.318Z,33.03
2023-01-20T12:12:28.723Z,36.67
2023-01-20T12:15:12.328Z,34.50
2023-01-20T12:17:46.475Z,34.03
2023-01-20T12:20:22.386Z,35.37
2023-01-20T12:23:00.875Z,35.27
2023-01-20T12:25:29.758Z,29.30
2023-01-20T12:28:05.375Z,35.07
2023-01-20T12:30:42.738Z,36.33
2023-01-20T12:33:24.045Z,34.73
2023-01-20T12:36:07.947Z,35.07
2023-01-20T12:38:50.805Z,43.20
2023-01-20T12:41:45.477Z,40.57
2023-01-20T12:44:18.275Z,38.00
2023-01-20T12:46:56.895Z,43.70
2023-01-20T12:49:38.519Z,47.53
2023-01-20T12:52:29.621Z,44.70
2023-01-20T12:55:23.029Z,43.80
2023-01-20T12:58:14.038Z,47.27
2023-01-20T13:00:50.743Z,38.97
2023-01-20T13:03:37.807Z,38.00
2023-01-20T13:06:28.971Z,36.27
2023-01-20T13:09:13.451Z,34.10
2023-01-20T13:12:04.483Z,29.70
2023-01-20T13:14:44.728Z,30.70
2023-01-20T13:17:35.828Z,22.23
2023-01-20T13:20:05.513Z,24.90
2023-01-20T13:22:39.531Z,28.67
2023-01-20T13:25:07.255Z,29.10
2023-01-20T13:27:35.935Z,28.93
2023-01-20T13:30:04.569Z,30.20
2023-01-20T13:32:37.976Z,33.70
2023-01-20T13:35:23.429Z,30.60
2023-01-20T13:37:54.935Z,27.00
2023-01-20T13:40:30.956Z,27.07
2023-01-20T13:42:57.776Z,25.03
2023-01-20T13:45:25.792Z,25.77
2023-01-20T13:48:04.699Z,20.40
2023-01-20T13:50:34.490Z,22.53
2023-01-20T13:53:10.206Z,24.40
2023-01-20T13:55:45.601Z,23.13
2023-01-20T13:58:26.237Z,19.50
2023-01-20T14:01:00.012Z,23.40
2023-01-20T14:03:35.265Z,20.23
2023-01-20T14:06:02.163Z,20.53
2023-01-20T14:08:37.544Z,26.00
2023-01-20T14:11:13.345Z,22.07
2023-01-20T14:13:40.814Z,21.33
2023-01-20T14:16:28.923Z,20.47
2023-01-20T14:19:02.254Z,22.40
2023-01-20T14:21:30.199Z,22.70
2023-01-20T14:23:56.985Z,26.60
2023-01-20T14:26:28.451Z,23.03
2023-01-20T14:28:58.363Z,25.27
2023-01-20T14:31:45.505Z,24.53
2023-01-20T14:34:32.208Z,19.90
2023-01-20T14:37:00.458Z,19.70
2023-01-20T14:39:29.988Z,20.37
2023-01-20T14:42:00.874Z,21.43
2023-01-20T14:44:32.653Z,22.87
2023-01-20T14:47:00.610Z,21.97
2023-01-20T14:49:39.499Z,23.07
2023-01-20T14:52:17.123Z,26.87
2023-01-20T14:54:46.993Z,26.87
2023-01-20T14:57:26.498Z,25.57
2023-01-20T15:00:22.754Z,33.13
2023-01-20T15:03:01.307Z,28.70
2023-01-20T15:05:37.454Z,29.90
2023-01-20T15:08:26.601Z,31.20
2023-01-20T15:11:12.767Z,34.00
2023-01-20T15:13:40.102Z,30.20
2023-01-20T15:16:16.082Z,30.43
2023-01-20T15:18:45.398Z,29.37
2023-01-20T15:21:27.265Z,28.97
2023-01-20T15:23:54.064Z,31.53
2023-01-20T15:26:28.813Z,34.33
2023-01-20T15:28:56.102Z,33.10
2023-01-20T15:31:23.021Z,30.00
2023-01-20T15:33:54.262Z,34.23
2023-01-20T15:36:33.303Z,32.43
2023-01-20T15:39:02.384Z,33.60
2023-01-20T15:41:31.356Z,34.43
2023-01-20T15:43:58.158Z,36.83
2023-01-20T15:46:25.123Z,31.30
2023-01-20T15:48:51.982Z,29.63
2023-01-20T15:51:21.561Z,30.97
2023-01-20T15:53:48.499Z,35.37
2023-01-20T15:56:18.305Z,25.77
2023-01-20T15:58:47.593Z,30.70
2023-01-20T16:01:18.633Z,32.10
2023-01-20T16:03:48.045Z,29.60
2023-01-20T16:06:16.037Z,30.97
2023-01-20T16:08:49.184Z,28.17
2023-01-20T16:11:16.504Z,38.13
2023-01-20T16:13:43.423Z,33.93
2023-01-20T16:16:18.306Z,30.80
2023-01-20T16:18:47.499Z,29.77
2023-01-20T16:21:18.426Z,30.80
2023-01-20T16:23:45.244Z,30.57
2023-01-20T16:26:22.966Z,29.57
2023-01-20T16:28:54.279Z,26.23
2023-01-20T16:31:21.359Z,25.93
2023-01-20T16:33:48.369Z,27.00
2023-01-20T16:36:21.544Z,24.73
2023-01-20T16:38:48.471Z,22.47
2023-01-20T16:41:23.804Z,22.73
2023-01-20T16:43:53.683Z,21.60
2023-01-20T16:46:23.924Z,22.40
2023-01-20T16:48:50.966Z,23.63
2023-01-20T16:51:22.276Z,25.87
2023-01-20T16:53:49.255Z,28.47
2023-01-20T16:56:20.174Z,28.87
2023-01-20T16:58:47.746Z,30.77
2023-01-20T17:01:14.669Z,31.20
2023-01-20T17:03:41.844Z,32.70
2023-01-20T17:06:17.797Z,35.80
2023-01-20T17:08:53.238Z,37.50
2023-01-20T17:11:25.058Z,29.33
2023-01-20T17:13:56.761Z,34.20
2023-01-20T17:16:25.185Z,33.53
2023-01-20T17:18:55.214Z,28.50
2023-01-20T17:21:22.680Z,26.80
2023-01-20T17:23:51.296Z,30.57
2023-01-20T17:26:23.153Z,29.17
2023-01-20T17:28:53.998Z,27.93
2023-01-20T17:31:20.864Z,30.20
2023-01-20T17:33:47.741Z,28.33
2023-01-20T17:36:16.917Z,27.07
2023-01-20T17:38:43.983Z,23.40
2023-01-20T17:41:11.143Z,23.97
2023-01-20T17:43:39.766Z,28.27
2023-01-20T17:46:15.014Z,25.93
2023-01-20T17:48:42.232Z,24.20
2023-01-20T17:51:13.688Z,21.50
2023-01-20T17:53:40.891Z,22.77
2023-01-20T17:56:12.811Z,23.27
2023-01-20T17:58:45.792Z,20.33
2023-01-20T18:01:25.845Z,24.77
2023-01-20T18:03:53.727Z,21.20
2023-01-20T18:06:34.908Z,22.73
2023-01-20T18:09:03.929Z,24.77
2023-01-20T18:11:32.339Z,22.93
2023-01-20T18:14:04.276Z,25.63
2023-01-20T18:16:35.959Z,23.60
2023-01-20T18:19:04.076Z,20.77
2023-01-20T18:21:39.484Z,20.73
2023-01-20T18:24:10.809Z,23.10
2023-01-20T18:26:38.441Z,22.00
2023-01-20T18:29:09.211Z,22.70
2023-01-20T18:31:38.629Z,22.57
2023-01-20T18:34:09.580Z,22.57
2023-01-20T18:36:40.729Z,22.67
2023-01-20T18:39:22.410Z,28.10
2023-01-20T18:41:49.932Z,21.97
2023-01-20T18:44:23.777Z,20.60
2023-01-20T18:46:53.186Z,20.23
2023-01-20T18:49:21.429Z,22.63
2023-01-20T18:51:50.998Z,21.87
2023-01-20T18:54:21.436Z,22.53
2023-01-20T18:56:51.251Z,21.57
2023-01-20T18:59:20.826Z,19.63
2023-01-20T19:01:50.915Z,22.50
2023-01-20T19:04:20.289Z,20.47
2023-01-20T19:06:47.294Z,20.23
2023-01-20T19:09:17.523Z,18.03
2023-01-20T19:11:44.384Z,22.00
2023-01-20T19:14:14.549Z,22.90
2023-01-20T19:16:48.948Z,20.70
2023-01-20T19:19:17.463Z,19.43
2023-01-20T19:21:48.909Z,18.67
2023-01-20T19:24:22.026Z,16.77
2023-01-20T19:26:51.205Z,19.13
2023-01-20T19:29:23.062Z,16.33
2023-01-20T19:31:54.608Z,17.70
2023-01-20T19:34:21.478Z,18.23
2023-01-20T19:36:53.056Z,16.83
2023-01-20T19:39:22.304Z,17.93
2023-01-20T19:41:49.072Z,19.10
2023-01-20T19:44:15.858Z,16.23
2023-01-20T19:46:45.364Z,15.53
2023-01-20T19:49:12.272Z,16.30
2023-01-20T19:51:41.656Z,15.33
2023-01-20T19:54:18.301Z,16.53
2023-01-20T19:56:47.583Z,17.43
2023-01-20T19:59:16.898Z,17.80
2023-01-20T20:01:46.635Z,15.67
2023-01-20T20:04:20.440Z,18.10
2023-01-20T20:06:49.694Z,18.13
2023-01-20T20:09:20.740Z,20.00
2023-01-20T20:12:05.243Z,21.60
2023-01-20T20:14:36.837Z,15.10
2023-01-20T20:17:05.830Z,18.47
2023-01-20T20:19:36.239Z,16.60
2023-01-20T20:22:05.284Z,17.47
2023-01-20T20:24:32.052Z,17.97
2023-01-20T20:26:58.873Z,19.03
2023-01-20T20:29:25.659Z,15.40
2023-01-20T20:31:55.091Z,15.50
2023-01-20T20:34:24.154Z,16.80
2023-01-20T20:36:53.421Z,15.20
2023-01-20T20:39:20.219Z,15.70
2023-01-20T20:41:47.079Z,15.30
2023-01-20T20:44:13.942Z,18.67
2023-01-20T20:46:40.960Z,19.60
2023-01-20T20:49:12.492Z,15.37
2023-01-20T20:51:39.330Z,16.50
2023-01-20T20:54:06.111Z,14.67
2023-01-20T20:56:35.330Z,17.57
2023-01-20T20:59:03.452Z,15.97
2023-01-20T21:01:33.827Z,17.10
2023-01-20T21:04:01.853Z,16.63
2023-01-20T21:06:29.353Z,17.10
2023-01-20T21:08:56.449Z,16.03
2023-01-20T21:11:24.499Z,18.33
2023-01-20T21:13:51.796Z,15.60
2023-01-20T21:16:21.835Z,17.43
2023-01-20T21:18:56.127Z,15.47
2023-01-20T21:21:25.552Z,15.23
2023-01-20T21:23:56.348Z,15.10
2023-01-20T21:26:23.985Z,15.00
2023-01-20T21:28:54.078Z,16.07
2023-01-20T21:31:22.744Z,13.93
2023-01-20T21:33:54.007Z,14.13
2023-01-20T21:36:21.134Z,16.33
2023-01-20T21:38:50.555Z,14.83
2023-01-20T21:41:17.663Z,12.27
2023-01-20T21:44:05.788Z,14.80
2023-01-20T21:46:39.037Z,14.47
2023-01-20T21:49:25.348Z,14.30
2023-01-20T21:52:10.578Z,16.23
2023-01-20T21:54:41.198Z,14.90
2023-01-20T21:57:08.197Z,16.30
2023-01-20T21:59:34.979Z,18.13
2023-01-20T22:02:01.762Z,17.27
2023-01-20T22:04:28.604Z,15.87
2023-01-20T22:06:55.381Z,17.27
2023-01-20T22:09:22.152Z,19.63
2023-01-20T22:11:49.455Z,14.63
2023-01-20T22:14:16.201Z,15.83
2023-01-20T22:16:45.312Z,15.90
2023-01-20T22:19:14.715Z,16.33
2023-01-20T22:21:44.025Z,14.67
2023-01-20T22:24:10.853Z,15.50
2023-01-20T22:26:40.186Z,16.50
2023-01-20T22:29:09.490Z,14.90
2023-01-20T22:31:36.380Z,16.23
2023-01-20T22:34:05.198Z,16.00
2023-01-20T22:36:34.225Z,16.83
2023-01-20T22:39:01.122Z,14.77
2023-01-20T22:41:27.965Z,17.37
2023-01-20T22:43:55.776Z,14.93
2023-01-20T22:46:26.197Z,12.70
2023-01-20T22:48:53.923Z,13.10
2023-01-20T22:51:22.123Z,13.13
2023-01-20T22:53:48.999Z,15.03
2023-01-20T22:56:20.198Z,14.57
2023-01-20T22:58:49.085Z,16.40
2023-01-20T23:01:20.417Z,14.73
2023-01-20T23:03:52.861Z,15.80
2023-01-20T23:06:19.624Z,17.10
2023-01-20T23:08:46.446Z,15.27
2023-01-20T23:11:14.282Z,15.13
2023-01-20T23:13:41.262Z,20.00
2023-01-20T23:16:10.227Z,18.70
2023-01-20T23:18:39.279Z,17.50
2023-01-20T23:21:06.182Z,20.47
2023-01-20T23:23:35.490Z,16.47
2023-01-20T23:26:11.770Z,20.80
2023-01-20T23:28:40.907Z,20.97
2023-01-20T23:31:10.939Z,19.73
2023-01-20T23:33:42.572Z,21.00
2023-01-20T23:36:20.430Z,20.23
2023-01-20T23:38:47.262Z,21.67
2023-01-20T23:41:14.120Z,23.50
2023-01-20T23:43:41.203Z,25.00
2023-01-20T23:46:10.492Z,21.17
2023-01-20T23:48:39.889Z,22.33
2023-01-20T23:51:06.955Z,29.63
2023-01-20T23:53:39.022Z,24.33
2023-01-20T23:56:07.961Z,26.10
2023-01-20T23:58:34.727Z,26.00
